createdAt,value
2019-02-25T00:00:20.066Z,-1.00
2019-02-25T00:02:51.715Z,-0.90
2019-02-25T00:05:20.195Z,-1.00
2019-02-25T00:07:48.651Z,-1.00
2019-02-25T00:10:17.290Z,-0.90
2019-02-25T00:12:45.892Z,-1.00
2019-02-25T00:15:14.319Z,-1.00
2019-02-25T00:17:42.735Z,-0.90
2019-02-25T00:20:14.566Z,-1.00
2019-02-25T00:22:42.972Z,-1.10
2019-02-25T00:25:13.248Z,-1.20
2019-02-25T00:27:41.709Z,-1.20
2019-02-25T00:30:14.753Z,-1.20
2019-02-25T00:32:43.220Z,-1.30
2019-02-25T00:35:11.743Z,-1.30
2019-02-25T00:37:40.146Z,-1.40
2019-02-25T00:40:10.842Z,-1.30
2019-02-25T00:42:39.279Z,-1.30
2019-02-25T00:45:10.491Z,-1.30
2019-02-25T00:47:38.950Z,-1.30
2019-02-25T00:50:10.491Z,-1.40
2019-02-25T00:52:38.942Z,-1.40
2019-02-25T00:55:08.723Z,-1.40
2019-02-25T00:57:37.144Z,-1.50
2019-02-25T01:00:08.664Z,-1.50
2019-02-25T01:02:40.134Z,-1.50
2019-02-25T01:05:09.401Z,-1.50
2019-02-25T01:07:38.158Z,-1.50
2019-02-25T01:10:09.387Z,-1.50
2019-02-25T01:12:37.830Z,-1.60
2019-02-25T01:15:08.390Z,-1.70
2019-02-25T01:17:36.846Z,-1.70
2019-02-25T01:20:11.302Z,-1.70
2019-02-25T01:22:39.758Z,-1.70
2019-02-25T01:25:10.411Z,-1.70
2019-02-25T01:27:38.866Z,-1.60
2019-02-25T01:30:12.675Z,-1.60
2019-02-25T01:32:44.230Z,-1.50
2019-02-25T01:35:13.782Z,-1.50
2019-02-25T01:37:42.407Z,-1.50
2019-02-25T01:40:14.981Z,-1.60
2019-02-25T01:42:43.458Z,-1.70
2019-02-25T01:45:14.090Z,-1.60
2019-02-25T01:47:42.534Z,-1.70
2019-02-25T01:50:11.802Z,-1.70
2019-02-25T01:52:40.255Z,-1.80
2019-02-25T01:55:10.510Z,-1.80
2019-02-25T01:57:39.123Z,-1.60
2019-02-25T02:00:13.631Z,-1.60
2019-02-25T02:02:42.042Z,-1.60
2019-02-25T02:05:10.579Z,-1.60
2019-02-25T02:07:39.000Z,-1.60
2019-02-25T02:10:15.127Z,-1.70
2019-02-25T02:12:43.552Z,-1.70
2019-02-25T02:15:17.314Z,-1.70
2019-02-25T02:17:45.757Z,-1.70
2019-02-25T02:20:16.157Z,-1.80
2019-02-25T02:22:44.553Z,-1.80
2019-02-25T02:25:13.798Z,-1.70
2019-02-25T02:27:42.256Z,-1.70
2019-02-25T02:30:16.619Z,-1.80
2019-02-25T02:32:45.026Z,-1.80
2019-02-25T02:35:17.125Z,-1.90
2019-02-25T02:37:45.572Z,-1.90
2019-02-25T02:40:14.663Z,-2.00
2019-02-25T02:42:48.768Z,-2.00
2019-02-25T02:45:23.344Z,-2.00
2019-02-25T02:47:58.045Z,-1.90
2019-02-25T02:50:26.455Z,-1.80
2019-02-25T02:52:54.870Z,-1.80
2019-02-25T02:55:23.302Z,-1.80
2019-02-25T02:57:51.723Z,-1.80
2019-02-25T03:00:20.609Z,-1.80
2019-02-25T03:02:49.067Z,-1.80
2019-02-25T03:05:17.771Z,-1.90
2019-02-25T03:07:46.322Z,-1.90
2019-02-25T03:10:17.117Z,-1.90
2019-02-25T03:12:46.498Z,-1.80
2019-02-25T03:15:20.215Z,-1.70
2019-02-25T03:17:48.675Z,-1.80
2019-02-25T03:20:17.140Z,-1.80
2019-02-25T03:22:45.584Z,-1.80
2019-02-25T03:25:15.931Z,-1.90
2019-02-25T03:27:44.383Z,-2.00
2019-02-25T03:30:18.202Z,-2.00
2019-02-25T03:32:46.694Z,-2.20
2019-02-25T03:35:18.658Z,-2.20
2019-02-25T03:37:47.121Z,-2.20
2019-02-25T03:40:20.871Z,-2.20
2019-02-25T03:42:49.445Z,-2.20
2019-02-25T03:45:21.422Z,-2.20
2019-02-25T03:47:49.833Z,-2.20
2019-02-25T03:50:22.050Z,-2.20
2019-02-25T03:52:50.468Z,-2.20
2019-02-25T03:55:20.468Z,-2.20
2019-02-25T03:57:49.454Z,-2.20
2019-02-25T04:00:38.730Z,-2.20
2019-02-25T04:03:07.178Z,-2.20
2019-02-25T04:05:39.019Z,-2.10
2019-02-25T04:08:07.467Z,-2.20
2019-02-25T04:10:35.920Z,-2.20
2019-02-25T04:13:04.340Z,-2.20
2019-02-25T04:15:40.629Z,-2.20
2019-02-25T04:18:09.083Z,-2.20
2019-02-25T04:20:37.491Z,-2.20
2019-02-25T04:23:05.964Z,-2.20
2019-02-25T04:25:34.375Z,-2.20
2019-02-25T04:28:02.911Z,-2.30
2019-02-25T04:30:31.385Z,-2.30
2019-02-25T04:32:59.802Z,-2.30
2019-02-25T04:35:28.254Z,-2.30
2019-02-25T04:37:56.707Z,-2.30
2019-02-25T04:40:25.277Z,-2.40
2019-02-25T04:42:53.734Z,-2.40
2019-02-25T04:45:22.196Z,-2.40
2019-02-25T04:47:50.899Z,-2.30
2019-02-25T04:50:19.418Z,-2.30
2019-02-25T04:52:47.847Z,-2.30
2019-02-25T04:55:16.499Z,-2.30
2019-02-25T04:57:44.969Z,-2.30
2019-02-25T05:00:21.319Z,-2.30
2019-02-25T05:02:49.743Z,-2.30
2019-02-25T05:05:18.231Z,-2.30
2019-02-25T05:07:46.679Z,-2.30
2019-02-25T05:10:16.168Z,-2.30
2019-02-25T05:13:01.525Z,-2.30
2019-02-25T05:15:31.331Z,-2.30
2019-02-25T05:17:59.788Z,-2.30
2019-02-25T05:20:28.209Z,-2.30
2019-02-25T05:22:56.673Z,-2.40
2019-02-25T05:25:25.156Z,-2.40
2019-02-25T05:27:53.607Z,-2.30
2019-02-25T05:30:22.057Z,-2.40
2019-02-25T05:32:50.533Z,-2.30
2019-02-25T05:35:18.942Z,-2.30
2019-02-25T05:37:47.434Z,-2.40
2019-02-25T05:40:18.094Z,-2.30
2019-02-25T05:42:46.636Z,-2.20
2019-02-25T05:45:15.824Z,-2.20
2019-02-25T05:47:44.240Z,-2.20
2019-02-25T05:50:14.941Z,-2.20
2019-02-25T05:52:43.368Z,-2.30
2019-02-25T05:55:13.739Z,-2.30
2019-02-25T05:57:42.228Z,-2.40
2019-02-25T06:00:17.826Z,-2.40
2019-02-25T06:02:46.269Z,-2.40
2019-02-25T06:05:14.777Z,-2.40
2019-02-25T06:07:43.244Z,-2.30
2019-02-25T06:10:13.662Z,-2.40
2019-02-25T06:12:42.076Z,-2.30
2019-02-25T06:15:15.195Z,-2.30
2019-02-25T06:17:43.657Z,-2.30
2019-02-25T06:20:15.911Z,-2.30
2019-02-25T06:22:45.902Z,-2.20
2019-02-25T06:25:15.614Z,-2.20
2019-02-25T06:27:44.262Z,-2.20
2019-02-25T06:30:21.393Z,-2.20
2019-02-25T06:32:49.847Z,-2.10
2019-02-25T06:35:18.520Z,-2.10
2019-02-25T06:37:50.414Z,-2.10
2019-02-25T06:40:22.287Z,-2.10
2019-02-25T06:42:50.793Z,-2.10
2019-02-25T06:45:24.925Z,-2.00
2019-02-25T06:47:53.409Z,-2.10
2019-02-25T06:50:22.017Z,-2.00
2019-02-25T06:52:50.602Z,-2.00
2019-02-25T06:55:19.052Z,-1.90
2019-02-25T06:57:47.518Z,-1.80
2019-02-25T07:00:23.046Z,-1.70
2019-02-25T07:02:51.460Z,-1.50
2019-02-25T07:05:39.063Z,-1.50
2019-02-25T07:08:12.689Z,-1.30
2019-02-25T07:10:48.721Z,-1.30
2019-02-25T07:13:21.532Z,-1.30
2019-02-25T07:15:54.317Z,-1.20
2019-02-25T07:18:42.651Z,-1.10
2019-02-25T07:21:12.734Z,-1.00
2019-02-25T07:23:51.382Z,-1.00
2019-02-25T07:26:30.222Z,-1.00
2019-02-25T07:29:06.124Z,-0.80
2019-02-25T07:31:54.527Z,-0.80
2019-02-25T07:34:40.856Z,-0.70
2019-02-25T07:37:19.826Z,-0.70
2019-02-25T07:39:55.647Z,-0.60
2019-02-25T07:42:25.761Z,-0.50
2019-02-25T07:45:04.897Z,-0.40
2019-02-25T07:47:37.772Z,-0.30
2019-02-25T07:50:09.085Z,-0.20
2019-02-25T07:52:51.382Z,0.00
2019-02-25T07:55:21.482Z,0.10
2019-02-25T07:58:03.806Z,0.20
2019-02-25T08:00:33.920Z,0.30
2019-02-25T08:03:06.867Z,0.40
2019-02-25T08:05:45.440Z,0.50
2019-02-25T08:08:18.477Z,0.60
2019-02-25T08:10:51.195Z,0.70
2019-02-25T08:13:39.673Z,0.90
2019-02-25T08:16:15.663Z,0.90
2019-02-25T08:18:45.803Z,1.00
2019-02-25T08:21:15.885Z,1.20
2019-02-25T08:23:48.970Z,1.30
2019-02-25T08:26:43.370Z,1.40
2019-02-25T08:29:29.768Z,1.50
2019-02-25T08:32:02.524Z,1.70
2019-02-25T08:34:49.023Z,1.90
2019-02-25T08:37:27.672Z,2.10
2019-02-25T08:40:12.852Z,2.20
2019-02-25T08:42:41.846Z,2.40
2019-02-25T08:45:11.934Z,2.60
2019-02-25T08:47:44.961Z,2.70
2019-02-25T08:50:14.635Z,2.90
2019-02-25T08:52:43.114Z,3.00
2019-02-25T08:55:11.930Z,3.20
2019-02-25T08:57:40.426Z,3.30
2019-02-25T09:00:11.974Z,3.40
2019-02-25T09:02:40.523Z,3.50
2019-02-25T09:05:12.134Z,3.60
2019-02-25T09:07:42.588Z,3.80
2019-02-25T09:10:16.653Z,3.80
2019-02-25T09:12:45.126Z,3.90
2019-02-25T09:15:15.023Z,4.00
2019-02-25T09:17:46.911Z,4.00
2019-02-25T09:20:16.396Z,4.10
2019-02-25T09:22:44.919Z,4.30
2019-02-25T09:25:14.924Z,4.40
2019-02-25T09:27:43.617Z,4.50
2019-02-25T09:30:19.193Z,4.60
2019-02-25T09:32:47.680Z,4.70
2019-02-25T09:35:16.481Z,4.80
2019-02-25T09:37:44.962Z,4.90
2019-02-25T09:40:15.738Z,5.00
2019-02-25T09:42:44.227Z,5.20
2019-02-25T09:45:19.150Z,5.20
2019-02-25T09:47:47.588Z,5.30
2019-02-25T09:50:18.343Z,5.50
2019-02-25T09:52:46.826Z,5.70
2019-02-25T09:55:15.310Z,5.90
2019-02-25T09:57:43.775Z,6.00
2019-02-25T10:00:17.889Z,6.20
2019-02-25T10:02:46.353Z,6.30
2019-02-25T10:05:14.806Z,6.40
2019-02-25T10:07:43.263Z,6.40
2019-02-25T10:10:16.542Z,6.40
2019-02-25T10:12:45.001Z,6.50
2019-02-25T10:15:24.687Z,6.60
2019-02-25T10:17:53.155Z,6.70
2019-02-25T10:20:21.635Z,6.80
2019-02-25T10:22:50.110Z,6.90
2019-02-25T10:25:18.514Z,7.00
2019-02-25T10:27:46.931Z,7.00
2019-02-25T10:30:20.265Z,7.10
2019-02-25T10:32:48.681Z,7.20
2019-02-25T10:35:25.563Z,7.20
2019-02-25T10:37:55.140Z,7.40
2019-02-25T10:40:25.341Z,7.40
2019-02-25T10:42:53.732Z,7.50
2019-02-25T10:45:23.214Z,7.60
2019-02-25T10:47:56.588Z,7.70
2019-02-25T10:50:22.196Z,7.70
2019-02-25T10:52:50.640Z,7.90
2019-02-25T10:55:30.915Z,8.10
2019-02-25T10:58:01.457Z,8.20
2019-02-25T11:00:29.722Z,8.20
2019-02-25T11:02:58.323Z,8.20
2019-02-25T11:05:29.933Z,8.20
2019-02-25T11:07:57.121Z,8.30
2019-02-25T11:10:40.085Z,8.40
2019-02-25T11:13:08.542Z,8.50
2019-02-25T11:15:39.612Z,8.70
2019-02-25T11:18:08.375Z,8.80
2019-02-25T11:20:38.538Z,8.90
2019-02-25T11:23:07.011Z,9.10
2019-02-25T11:25:35.450Z,9.10
2019-02-25T11:28:11.208Z,9.20
2019-02-25T11:30:38.206Z,9.00
2019-02-25T11:33:06.607Z,9.20
2019-02-25T11:35:36.607Z,9.10
2019-02-25T11:38:05.497Z,9.10
2019-02-25T11:40:35.950Z,9.10
2019-02-25T11:43:04.065Z,9.20
2019-02-25T11:45:32.879Z,9.30
2019-02-25T11:48:01.299Z,9.40
2019-02-25T11:50:29.722Z,9.50
2019-02-25T11:52:58.132Z,9.60
2019-02-25T11:55:26.622Z,9.70
2019-02-25T11:58:02.640Z,9.80
2019-02-25T12:00:31.179Z,9.90
2019-02-25T12:02:59.623Z,9.90
2019-02-25T12:05:31.483Z,10.00
2019-02-25T12:08:00.005Z,10.10
2019-02-25T12:10:30.138Z,10.30
2019-02-25T12:12:58.574Z,10.40
2019-02-25T12:15:30.219Z,10.50
2019-02-25T12:17:58.662Z,10.70
2019-02-25T12:20:27.185Z,10.80
2019-02-25T12:22:55.593Z,10.90
2019-02-25T12:25:25.293Z,11.00
2019-02-25T12:27:53.743Z,11.10
2019-02-25T12:30:29.613Z,11.20
2019-02-25T12:32:58.036Z,11.30
2019-02-25T12:35:26.490Z,11.30
2019-02-25T12:37:54.912Z,11.30
2019-02-25T12:40:23.483Z,11.40
2019-02-25T12:42:51.942Z,11.50
2019-02-25T12:45:20.377Z,11.70
2019-02-25T12:47:48.921Z,11.70
2019-02-25T12:50:18.470Z,11.80
2019-02-25T12:52:47.465Z,11.80
2019-02-25T12:55:17.356Z,11.90
2019-02-25T12:57:45.935Z,12.00
2019-02-25T13:00:17.165Z,12.10
2019-02-25T13:02:45.599Z,12.20
2019-02-25T13:05:17.091Z,12.20
2019-02-25T13:07:45.493Z,12.30
2019-02-25T13:10:15.951Z,12.40
2019-02-25T13:12:44.397Z,12.40
2019-02-25T13:15:15.097Z,12.40
2019-02-25T13:17:43.886Z,12.30
2019-02-25T13:20:14.137Z,12.30
2019-02-25T13:22:42.618Z,12.40
2019-02-25T13:25:20.143Z,12.30
2019-02-25T13:27:48.656Z,12.50
2019-02-25T13:30:22.180Z,12.60
2019-02-25T13:32:50.675Z,12.60
2019-02-25T13:35:19.244Z,12.60
2019-02-25T13:37:47.726Z,12.60
2019-02-25T13:40:18.249Z,12.70
2019-02-25T13:42:46.909Z,12.80
2019-02-25T13:45:25.619Z,12.80
2019-02-25T13:47:54.102Z,12.80
2019-02-25T13:50:22.830Z,12.80
2019-02-25T13:52:51.351Z,12.80
2019-02-25T13:55:21.305Z,12.90
2019-02-25T13:57:49.929Z,13.00
2019-02-25T14:00:24.849Z,13.10
2019-02-25T14:02:53.354Z,13.20
2019-02-25T14:05:22.888Z,13.40
2019-02-25T14:07:51.363Z,13.40
2019-02-25T14:10:20.806Z,13.40
2019-02-25T14:12:49.245Z,13.50
2019-02-25T14:15:23.656Z,13.60
2019-02-25T14:17:52.573Z,13.60
2019-02-25T14:20:22.538Z,13.70
2019-02-25T14:22:51.047Z,13.80
2019-02-25T14:25:25.849Z,13.80
2019-02-25T14:27:54.617Z,13.70
2019-02-25T14:30:32.655Z,13.70
2019-02-25T14:32:58.448Z,13.60
2019-02-25T14:35:33.762Z,13.70
2019-02-25T14:38:17.281Z,13.80
2019-02-25T14:40:46.297Z,13.70
2019-02-25T14:43:15.632Z,13.70
2019-02-25T14:45:52.544Z,13.60
2019-02-25T14:48:20.484Z,13.50
2019-02-25T14:50:47.471Z,13.40
2019-02-25T14:53:16.075Z,13.40
2019-02-25T14:55:46.936Z,13.40
2019-02-25T14:58:15.594Z,13.30
2019-02-25T15:00:45.030Z,13.30
2019-02-25T15:03:13.564Z,13.30
2019-02-25T15:05:42.314Z,13.40
2019-02-25T15:08:11.039Z,13.40
2019-02-25T15:10:40.775Z,13.40
2019-02-25T15:13:10.635Z,13.30
2019-02-25T15:15:41.165Z,13.30
2019-02-25T15:18:09.804Z,13.20
2019-02-25T15:20:38.421Z,13.30
2019-02-25T15:23:07.482Z,13.40
2019-02-25T15:25:40.222Z,13.40
2019-02-25T15:28:09.305Z,13.50
2019-02-25T15:30:36.698Z,13.50
2019-02-25T15:33:05.503Z,13.50
2019-02-25T15:35:35.163Z,13.50
2019-02-25T15:38:04.154Z,13.50
2019-02-25T15:40:32.686Z,13.40
2019-02-25T15:43:12.589Z,13.40
2019-02-25T15:45:42.541Z,13.30
2019-02-25T15:48:17.416Z,13.20
2019-02-25T15:50:47.982Z,13.20
2019-02-25T15:53:16.395Z,13.10
2019-02-25T15:55:45.327Z,13.10
2019-02-25T15:58:14.422Z,13.00
2019-02-25T16:00:45.015Z,12.90
2019-02-25T16:03:14.241Z,12.90
2019-02-25T16:05:44.261Z,12.90
2019-02-25T16:08:16.154Z,12.70
2019-02-25T16:10:43.990Z,12.70
2019-02-25T16:13:14.174Z,12.40
2019-02-25T16:15:43.263Z,12.30
2019-02-25T16:18:13.666Z,12.20
2019-02-25T16:20:45.899Z,12.20
2019-02-25T16:23:13.344Z,12.20
2019-02-25T16:25:42.978Z,12.20
2019-02-25T16:28:13.076Z,12.00
2019-02-25T16:30:42.325Z,11.90
2019-02-25T16:33:14.312Z,11.70
2019-02-25T16:35:43.648Z,11.50
2019-02-25T16:38:12.246Z,11.20
2019-02-25T16:40:40.727Z,10.90
2019-02-25T16:43:10.490Z,10.80
2019-02-25T16:45:41.939Z,10.80
2019-02-25T16:48:10.380Z,10.90
2019-02-25T16:50:39.790Z,10.90
2019-02-25T16:53:10.879Z,10.90
2019-02-25T16:55:40.481Z,10.70
2019-02-25T16:58:12.909Z,10.60
2019-02-25T17:00:41.777Z,10.50
2019-02-25T17:03:18.254Z,10.30
2019-02-25T17:05:47.691Z,10.30
2019-02-25T17:08:19.059Z,10.20
2019-02-25T17:10:49.560Z,10.10
2019-02-25T17:13:18.649Z,10.00
2019-02-25T17:15:47.167Z,9.90
2019-02-25T17:18:16.026Z,9.80
2019-02-25T17:20:45.172Z,9.70
2019-02-25T17:23:13.996Z,9.60
2019-02-25T17:25:43.551Z,9.50
2019-02-25T17:28:15.256Z,9.40
2019-02-25T17:30:44.882Z,9.30
2019-02-25T17:33:14.671Z,9.10
2019-02-25T17:35:45.080Z,9.00
2019-02-25T17:38:13.587Z,8.90
2019-02-25T17:40:42.167Z,8.80
2019-02-25T17:43:11.271Z,8.60
2019-02-25T17:45:41.140Z,8.60
2019-02-25T17:48:11.069Z,8.50
2019-02-25T17:50:41.583Z,8.40
2019-02-25T17:53:10.168Z,8.50
2019-02-25T17:55:40.687Z,8.40
2019-02-25T17:58:09.864Z,8.30
2019-02-25T18:00:42.342Z,8.20
2019-02-25T18:03:10.784Z,8.10
2019-02-25T18:05:40.774Z,7.90
2019-02-25T18:08:14.539Z,7.80
2019-02-25T18:10:43.120Z,7.70
2019-02-25T18:13:12.021Z,7.60
2019-02-25T18:15:41.303Z,7.50
2019-02-25T18:18:15.172Z,7.40
2019-02-25T18:20:44.319Z,7.30
2019-02-25T18:23:12.757Z,7.10
2019-02-25T18:25:41.354Z,6.90
2019-02-25T18:28:10.840Z,6.90
2019-02-25T18:30:40.702Z,6.70
2019-02-25T18:33:10.072Z,6.70
2019-02-25T18:35:43.429Z,6.50
2019-02-25T18:38:12.006Z,6.50
2019-02-25T18:40:43.259Z,6.50
2019-02-25T18:43:10.834Z,6.50
2019-02-25T18:45:41.073Z,6.60
2019-02-25T18:48:09.846Z,6.40
2019-02-25T18:50:44.996Z,6.40
2019-02-25T18:53:12.070Z,6.20
2019-02-25T18:55:41.394Z,6.00
2019-02-25T18:58:11.983Z,5.80
2019-02-25T19:00:44.622Z,5.80
2019-02-25T19:03:13.157Z,5.90
2019-02-25T19:05:41.704Z,5.90
2019-02-25T19:08:19.567Z,5.70
2019-02-25T19:10:48.002Z,5.60
2019-02-25T19:13:18.586Z,5.50
2019-02-25T19:15:48.802Z,5.50
2019-02-25T19:18:18.739Z,5.40
2019-02-25T19:20:48.210Z,5.30
2019-02-25T19:23:16.817Z,5.30
2019-02-25T19:25:45.646Z,5.30
2019-02-25T19:28:18.750Z,5.20
2019-02-25T19:30:45.262Z,5.10
2019-02-25T19:33:13.880Z,5.00
2019-02-25T19:35:46.398Z,4.90
2019-02-25T19:38:15.872Z,4.90
2019-02-25T19:40:46.306Z,4.90
2019-02-25T19:43:15.566Z,4.80
2019-02-25T19:45:45.458Z,4.70
2019-02-25T19:48:14.141Z,4.60
2019-02-25T19:50:50.498Z,4.40
2019-02-25T19:53:15.169Z,4.40
2019-02-25T19:55:43.916Z,4.30
2019-02-25T19:58:13.175Z,4.20
2019-02-25T20:00:41.659Z,4.10
2019-02-25T20:03:16.609Z,4.00
2019-02-25T20:05:49.741Z,3.90
2019-02-25T20:08:23.923Z,4.00
2019-02-25T20:10:54.832Z,3.90
2019-02-25T20:13:23.205Z,4.00
2019-02-25T20:15:53.243Z,3.80
2019-02-25T20:18:21.898Z,3.90
2019-02-25T20:20:52.393Z,3.70
2019-02-25T20:23:22.829Z,3.80
2019-02-25T20:25:53.402Z,3.70
2019-02-25T20:28:22.908Z,3.70
2019-02-25T20:30:53.811Z,3.60
2019-02-25T20:33:25.698Z,3.50
2019-02-25T20:35:53.500Z,3.50
2019-02-25T20:38:26.812Z,3.40
2019-02-25T20:40:53.362Z,3.30
2019-02-25T20:43:23.622Z,3.30
2019-02-25T20:45:54.661Z,3.20
2019-02-25T20:48:23.741Z,3.20
2019-02-25T20:50:52.231Z,3.10
2019-02-25T20:53:20.736Z,3.10
2019-02-25T20:55:52.522Z,3.00
2019-02-25T20:58:23.143Z,3.00
2019-02-25T21:00:51.226Z,2.90
2019-02-25T21:03:21.354Z,2.90
2019-02-25T21:05:50.028Z,2.80
2019-02-25T21:08:19.089Z,2.80
2019-02-25T21:10:48.699Z,2.90
2019-02-25T21:13:17.258Z,2.80
2019-02-25T21:15:45.799Z,2.80
2019-02-25T21:18:14.435Z,2.70
2019-02-25T21:20:49.317Z,2.70
2019-02-25T21:23:18.242Z,2.60
2019-02-25T21:25:46.676Z,2.50
2019-02-25T21:28:15.114Z,2.50
2019-02-25T21:30:45.640Z,2.40
2019-02-25T21:33:17.398Z,2.40
2019-02-25T21:35:44.002Z,2.30
2019-02-25T21:38:12.409Z,2.30
2019-02-25T21:40:40.887Z,2.30
2019-02-25T21:43:09.717Z,2.30
2019-02-25T21:45:39.669Z,2.30
2019-02-25T21:48:08.145Z,2.30
2019-02-25T21:50:38.356Z,2.20
2019-02-25T21:53:09.231Z,2.20
2019-02-25T21:55:37.598Z,2.20
2019-02-25T21:58:06.094Z,2.10
2019-02-25T22:00:35.745Z,2.10
2019-02-25T22:03:08.217Z,2.10
2019-02-25T22:05:35.353Z,2.10
2019-02-25T22:08:05.941Z,2.00
2019-02-25T22:10:36.705Z,2.00
2019-02-25T22:13:08.814Z,1.90
2019-02-25T22:15:36.234Z,1.90
2019-02-25T22:18:06.234Z,1.80
2019-02-25T22:20:37.677Z,1.80
2019-02-25T22:23:05.786Z,1.80
2019-02-25T22:25:35.429Z,1.80
2019-02-25T22:28:05.362Z,1.70
2019-02-25T22:30:34.015Z,1.70
2019-02-25T22:33:04.688Z,1.60
2019-02-25T22:35:35.511Z,1.60
2019-02-25T22:38:02.976Z,1.50
2019-02-25T22:40:32.254Z,1.50
2019-02-25T22:43:01.556Z,1.50
2019-02-25T22:45:31.452Z,1.50
2019-02-25T22:48:00.123Z,1.30
2019-02-25T22:50:29.212Z,1.30
2019-02-25T22:53:01.138Z,1.30
2019-02-25T22:55:28.863Z,1.30
2019-02-25T22:57:57.292Z,1.30
2019-02-25T23:00:44.391Z,1.30
2019-02-25T23:03:15.285Z,1.20
2019-02-25T23:05:43.595Z,1.20
2019-02-25T23:08:15.348Z,1.20
2019-02-25T23:10:44.462Z,1.20
2019-02-25T23:13:13.814Z,1.10
2019-02-25T23:15:44.309Z,1.20
2019-02-25T23:18:14.385Z,1.30
2019-02-25T23:20:42.619Z,1.20
2019-02-25T23:23:11.066Z,1.10
2019-02-25T23:25:39.471Z,1.00
2019-02-25T23:28:07.910Z,1.00
2019-02-25T23:30:39.135Z,0.90
2019-02-25T23:33:07.959Z,0.80
2019-02-25T23:35:36.671Z,0.80
2019-02-25T23:38:05.095Z,0.80
2019-02-25T23:40:35.535Z,0.90
2019-02-25T23:43:07.084Z,0.80
2019-02-25T23:45:35.613Z,0.80
2019-02-25T23:48:05.831Z,0.80
2019-02-25T23:50:36.064Z,0.70
2019-02-25T23:53:04.388Z,0.70
2019-02-25T23:55:36.420Z,0.70
2019-02-25T23:58:07.919Z,0.60
